Saint Germain, Wisconsin
Current Conditions -  °F | °C
As of 1:35 AM on Saturday 29 Nov 2014 (Local Time) from KEGV Reporting Station
Overcast Overcast  
Wind Chill: -9°   Ceiling: 500
Heat Index: -9°   Visibility: 7mi
Dew Point: -10°   Wind: 0mph
Humidity: 88%   Direction: NA
Pressure: 29.69"   Gusts: NA
Location:  45.9°N, 89.49°W
Report Text: KEGV 290735Z AUTO 00000KT 7SM OVC005 M09/M10 A2969 RMK AO2 T10861103
Loading
Personal Weather Stations






























Interactive Weather Map New forecast layout! Learn more

10-Day Weather Forecast

Advertisements
Track Severe Weather on mobile